createdAt,value
2024-01-20T13:38:33.573Z,25.1
2024-01-20T13:44:11.758Z,24.8
2024-01-20T13:49:54.823Z,25.6
2024-01-20T13:55:48.558Z,24.8
2024-01-20T14:01:27.709Z,25
2024-01-20T14:07:07.690Z,25.5
2024-01-20T14:12:46.547Z,24.7
2024-01-20T14:18:25.534Z,25
2024-01-20T14:24:07.517Z,25.5
2024-01-20T14:29:50.219Z,24.6
2024-01-20T14:35:30.341Z,25.1
2024-01-20T14:40:53.171Z,25.7
2024-01-20T14:46:32.168Z,25.3
2024-01-20T14:52:12.745Z,24.8
2024-01-20T14:57:51.596Z,24.2
2024-01-20T15:03:33.707Z,26
2024-01-20T15:09:15.806Z,27.4
2024-01-20T15:14:55.864Z,28.3
2024-01-20T15:20:38.663Z,28.9
2024-01-20T15:26:17.005Z,29.4
2024-01-20T15:31:58.187Z,29.8
2024-01-20T15:37:39.484Z,29.9
2024-01-20T15:43:19.860Z,29.9
2024-01-20T15:48:58.679Z,29.6
2024-01-20T15:54:38.646Z,29.8
2024-01-20T16:00:01.779Z,29.4
2024-01-20T16:05:41.467Z,29.5
2024-01-20T16:11:23.131Z,29.4
2024-01-20T16:17:04.229Z,29.4
2024-01-20T16:22:46.815Z,30.1
2024-01-20T16:28:10.533Z,30.1
2024-01-20T16:33:19.949Z,30.5
2024-01-20T16:38:59.486Z,31
2024-01-20T16:44:40.797Z,31.3
2024-01-20T16:50:20.613Z,31.4
2024-01-20T16:56:04.844Z,31.7
2024-01-20T17:01:16.427Z,31.8
2024-01-20T17:06:25.473Z,31.8
2024-01-20T17:11:48.845Z,31.6
2024-01-20T17:17:12.554Z,31.4
2024-01-20T17:22:36.660Z,31.4
2024-01-20T17:28:16.336Z,31.9
2024-01-20T17:33:25.875Z,32.1
2024-01-20T17:39:07.196Z,31.6
2024-01-20T17:44:30.885Z,31.6
2024-01-20T17:50:11.103Z,31.8
2024-01-20T17:55:18.799Z,32.1
2024-01-20T18:00:45.220Z,31.8
2024-01-20T18:05:55.426Z,31.9
2024-01-20T18:11:18.956Z,31.5
2024-01-20T18:16:57.404Z,31.8
2024-01-20T18:22:37.605Z,32.3
2024-01-20T18:28:17.280Z,32.6
2024-01-20T18:33:57.699Z,32.5
2024-01-20T18:39:37.264Z,32.8
2024-01-20T18:45:18.045Z,32.9
2024-01-20T18:50:42.235Z,32.9
2024-01-20T18:56:05.624Z,32.9
2024-01-20T19:01:44.581Z,32.9
2024-01-20T19:07:23.894Z,32.6
2024-01-20T19:12:33.407Z,32.7
2024-01-20T19:18:13.935Z,33
2024-01-20T19:23:56.173Z,33
2024-01-20T19:29:51.295Z,32.7
2024-01-20T19:35:16.874Z,32.6
2024-01-20T19:40:56.878Z,32.2
2024-01-20T19:46:38.011Z,31.8
2024-01-20T19:52:17.979Z,32
2024-01-20T19:57:59.328Z,32.8
2024-01-20T20:03:39.088Z,33
2024-01-20T20:09:18.681Z,33.1
2024-01-20T20:14:42.348Z,33.1
2024-01-20T20:20:06.451Z,33
2024-01-20T20:25:45.905Z,33.1
2024-01-20T20:31:34.030Z,33
2024-01-20T20:37:29.233Z,32.7
2024-01-20T20:43:08.320Z,32.4
2024-01-20T20:48:47.764Z,32.4
2024-01-20T20:54:28.378Z,32
2024-01-20T21:00:08.962Z,31.7
2024-01-20T21:05:49.288Z,31.3
2024-01-20T21:10:57.477Z,30.7
2024-01-20T21:16:36.356Z,30.2
2024-01-20T21:22:01.590Z,29.7
2024-01-20T21:27:41.518Z,29.3
2024-01-20T21:33:20.707Z,29.1
2024-01-20T21:39:01.722Z,28.6
2024-01-20T21:44:40.314Z,27.9
2024-01-20T21:50:19.802Z,27.4
2024-01-20T21:55:59.186Z,26.9
2024-01-20T22:01:38.947Z,26.8
2024-01-20T22:07:18.309Z,26.2
2024-01-20T22:12:40.920Z,26.1
2024-01-20T22:18:19.837Z,25.6
2024-01-20T22:23:58.746Z,26.8
2024-01-20T22:29:49.140Z,27.3
2024-01-20T22:35:28.769Z,26.9
2024-01-20T22:40:52.833Z,26.3
2024-01-20T22:46:31.491Z,25.8
2024-01-20T22:52:12.685Z,25.5
2024-01-20T22:57:51.410Z,25.3
2024-01-20T23:03:31.286Z,26.4
2024-01-20T23:09:10.762Z,27.1
2024-01-20T23:14:52.026Z,26.6
2024-01-20T23:20:31.417Z,25.9
2024-01-20T23:26:11.063Z,25.4
2024-01-20T23:31:49.765Z,24.9
2024-01-20T23:37:29.608Z,25.5
2024-01-20T23:43:09.399Z,26.4
2024-01-20T23:48:48.367Z,26.8
2024-01-20T23:54:12.255Z,26.1
2024-01-20T23:59:35.594Z,25.4
